Latest Coastal Weather Observations for Low Head

IDV60701

Issued at 8:52 pm EDT Saturday 10 December 2022 (issued every 10 minutes, with the page automatically refreshed every 10 minutes)

About coastal observations | Map of coastal stations | Coastal observations for VIC | Marine services | Other Formats
Station Details ID: 091293 Name: LOW HEAD Lat: -41.05 Lon: 146.79 Height: 3.0 m
Data from the previous 72 hours. | See also: Recent months at Low Head
Date/Time
EDT
Wind Sea
Height
m
Swell Vis
km
Cloud Weather Temp
°C
Press
MSL
hPa
Rain since
9am
mm
Dir  Spd
kts
Gust
kts
Height
m
Period
s
Dir
10/08:30pm N 7 8 - - - - - - - 15.2 1014.6 0.0
10/08:00pm N 7 7 - - - - - - - 15.4 1014.4 0.0
10/07:30pm N 5 6 - - - - - - - 15.3 1014.2 0.0
10/07:00pm NNW 6 7 - - - - - - - 15.7 1014.4 0.0
10/06:30pm N 8 10 - - - - - - - 15.8 1014.2 0.0
10/06:00pm N 10 11 - - - - - - - 15.8 1014.3 0.0
10/05:30pm N 11 13 - - - - - - - 16.6 1014.6 0.0
10/05:00pm N 10 11 - - - - - - - 16.2 1014.8 0.0
10/04:30pm N 11 12 - - - - - - - 16.4 1015.2 0.0
10/04:00pm N 11 11 - - - - - - - 17.0 1015.5 0.0
10/03:30pm N 11 12 - - - - - - - 16.2 1015.8 0.0
10/03:00pm N 11 13 - - - - - - - 16.5 1016.1 0.0
10/02:30pm N 12 14 - - - - - - - 15.7 1016.4 0.0
10/02:00pm N 11 12 - - - - - - - 15.8 1016.7 0.0
10/01:30pm N 11 12 - - - - - - - 15.6 1016.9 0.0
10/01:00pm N 11 13 - - - - - - - 15.7 1017.1 0.0
10/12:30pm NNE 12 14 - - - - - - - 15.5 1017.2 0.0
10/12:00pm NNE 15 17 - - - - - - - 15.7 1017.4 0.0
10/11:30am NE 14 16 - - - - - - - 16.5 1017.6 0.0
10/11:00am NE 12 13 - - - - - - - 16.6 1017.8 0.0
10/10:30am NE 12 14 - - - - - - - 15.4 1017.9 0.0
10/10:00am NE 11 13 - - - - - - - 15.8 1018.0 0.0
10/09:30am NE 11 13 - - - - - - - 15.6 1018.0 0.0
10/09:00am ENE 7 9 - - - - - - - 14.9 1018.1 0.0
10/08:30am SSE 9 11 - - - - - - - 13.9 1018.1 0.0
10/08:00am SSE 9 11 - - - - - - - 13.1 1017.9 0.0
10/07:30am SSE 9 12 - - - - - - - 12.5 1017.7 0.0
10/07:00am SSE 9 12 - - - - - - - 11.9 1017.6 0.0
10/06:30am SSE 9 11 - - - - - - - 11.6 1017.5 0.0
10/06:00am SSE 8 10 - - - - - - - 11.7 1017.4 0.0
10/05:30am SSE 9 11 - - - - - - - 11.5 1017.1 0.0
10/05:00am SSE 9 11 - - - - - - - 11.9 1017.1 0.0
10/04:30am SSE 9 11 - - - - - - - 11.9 1016.9 0.0
10/04:00am SE 6 8 - - - - - - - 11.4 1017.0 0.0
10/03:30am SE 6 8 - - - - - - - 11.4 1016.9 0.0
10/03:00am ESE 6 8 - - - - - - - 12.4 1016.8 0.0
10/02:30am ESE 7 9 - - - - - - - 12.9 1017.0 0.0
10/02:00am SE 6 9 - - - - - - - 12.5 1017.1 0.0
10/01:30am ESE 6 11 - - - - - - - 12.7 1017.1 0.0
10/01:00am ESE 8 11 - - - - - - - 12.9 1017.1 0.0
10/12:30am E 11 12 - - - - - - - 13.3 1017.2 0.0
10/12:00am E 9 11 - - - - - - - 13.5 1017.2 0.0
 
Date/Time
EDT
Wind Sea
Height
m
Swell Vis
km
Cloud Weather Temp
°C
Press
MSL
hPa
Rain since
9am
mm
Dir  Spd
kts
Gust
kts
Height
m
Period
s
Dir
09/11:30pm E 10 12 - - - - - - - 13.7 1017.0 0.0
09/11:00pm E 8 11 - - - - - - - 14.2 1017.0 0.0
09/10:30pm E 6 7 - - - - - - - 14.5 1016.7 0.0
09/10:00pm SE 5 7 - - - - - - - 14.9 1016.7 0.0
09/09:30pm NE 3 6 - - - - - - - 15.1 1016.4 0.0
09/09:00pm WNW 11 13 - - - - - - - 15.5 1015.9 0.0
09/08:30pm NW 13 16 - - - - - - - 15.5 1015.7 0.0
09/08:00pm NW 12 15 - - - - - - - 15.6 1015.7 0.0
09/07:30pm NW 13 16 - - - - - - - 15.6 1015.5 0.0
09/07:00pm NW 14 16 - - - - - - - 15.9 1015.3 0.0
09/06:30pm WNW 15 17 - - - - - - - 16.1 1015.1 0.0
09/06:00pm NW 17 20 - - - - - - - 16.6 1015.1 0.0
09/05:30pm NW 17 19 - - - - - - - 16.5 1015.1 0.0
09/05:00pm NW 17 20 - - - - - - - 16.5 1015.3 0.0
09/04:30pm NW 17 19 - - - - - - - 16.7 1015.6 0.0
09/04:00pm NW 18 21 - - - - - - - 16.9 1015.8 0.0
09/03:30pm WNW 19 21 - - - - - - - 16.9 1015.9 0.0
09/03:00pm WNW 19 22 - - - - - - - 16.5 1016.0 0.0
09/02:30pm WNW 20 23 - - - - - - - 16.4 1016.0 0.0
09/02:00pm WNW 19 22 - - - - - - - 16.4 1016.0 0.0
09/01:30pm W 18 20 - - - - - - - 16.1 1016.1 0.0
09/01:00pm WNW 20 23 - - - - - - - 15.0 1016.2 0.0
09/12:30pm WNW 19 21 - - - - - - - 15.6 1016.3 0.0
09/12:00pm WNW 16 18 - - - - - - - 15.3 1016.3 0.0
09/11:30am WNW 13 15 - - - - - - - 16.0 1016.5 0.0
09/11:00am NW 10 12 - - - - - - - 15.4 1016.5 0.0
09/10:30am NW 9 10 - - - - - - - 14.9 1016.5 0.0
09/10:00am NW 9 12 - - - - - - - 14.1 1016.7 0.0
09/09:30am WNW 6 10 - - - - - - - 13.2 1016.7 0.0
09/09:00am S 5 7 - - - - - - - 11.9 1016.7 0.0
09/08:30am S 6 9 - - - - - - - 11.2 1016.8 0.0
09/08:00am S 4 6 - - - - - - - 11.1 1016.7 0.0
09/07:30am SE 3 5 - - - - - - - 11.1 1016.3 0.0
09/07:00am S 4 5 - - - - - - - 9.7 1016.2 0.0
09/06:30am SE 2 4 - - - - - - - 8.8 1015.9 0.0
09/06:00am SE 3 5 - - - - - - - 8.2 1015.6 0.0
09/05:30am SSE 4 5 - - - - - - - 7.8 1015.5 0.0
09/05:00am S 4 6 - - - - - - - 7.5 1015.1 0.0
09/04:30am SE 4 5 - - - - - - - 7.7 1015.1 0.0
09/04:00am S 6 8 - - - - - - - 8.0 1015.0 0.0
09/03:30am S 9 11 - - - - - - - 9.6 1015.0 0.0
09/03:00am SE 4 7 - - - - - - - 8.1 1014.9 0.0
09/02:30am S 11 14 - - - - - - - 9.2 1014.7 0.0
09/02:00am S 8 14 - - - - - - - 9.5 1014.7 0.0
09/01:30am SSW 7 9 - - - - - - - 9.6 1014.7 0.0
09/01:00am S 11 13 - - - - - - - 10.2 1014.5 0.0
09/12:30am SSW 13 15 - - - - - - - 10.3 1014.3 0.0
09/12:00am SSW 13 16 - - - - - - - 10.8 1013.9 0.0
 
Date/Time
EDT
Wind Sea
Height
m
Swell Vis
km
Cloud Weather Temp
°C
Press
MSL
hPa
Rain since
9am
mm
Dir  Spd
kts
Gust
kts
Height
m
Period
s
Dir
08/11:30pm S 13 15 - - - - - - - 11.1 1013.6 0.0
08/11:00pm S 12 16 - - - - - - - 11.5 1013.4 0.0
08/10:30pm SSE 12 15 - - - - - - - 11.5 1013.2 0.0
08/10:00pm S 14 17 - - - - - - - 12.3 1012.8 0.0
08/09:30pm S 12 13 - - - - - - - 12.5 1012.5 0.0
08/09:00pm S 15 18 - - - - - - - 13.4 1012.0 0.0
08/08:30pm SSW 14 16 - - - - - - - 13.9 1011.5 0.0
08/08:00pm SSW 18 22 - - - - - - - 14.8 1010.8 0.0
08/07:30pm SSW 16 19 - - - - - - - 15.8 1010.1 0.0
08/07:00pm SSW 18 23 - - - - - - - 16.2 1009.5 0.0
08/06:30pm S 17 22 - - - - - - - 16.7 1008.9 0.0
08/06:00pm S 15 18 - - - - - - - 17.2 1008.5 0.0
08/05:30pm S 17 20 - - - - - - - 17.0 1008.1 0.0
08/05:00pm S 16 21 - - - - - - - 16.8 1007.8 0.0
08/04:30pm S 11 19 - - - - - - - 17.1 1007.6 0.0
08/04:00pm S 14 18 - - - - - - - 16.8 1007.4 0.0
08/03:30pm S 15 20 - - - - - - - 17.0 1007.2 0.0
08/03:00pm S 10 15 - - - - - - - 17.4 1006.9 0.0
08/02:30pm SSE 13 15 - - - - - - - 17.3 1006.8 0.0
08/02:00pm SSW 8 11 - - - - - - - 17.0 1006.8 0.0
08/01:30pm S 9 13 - - - - - - - 18.0 1006.6 0.0
08/01:00pm SSW 11 16 - - - - - - - 17.3 1006.7 0.0
08/12:30pm SW 11 16 - - - - - - - 17.0 1006.5 0.0
08/12:00pm SW 16 19 - - - - - - - 16.5 1006.5 0.0
08/11:30am SW 12 15 - - - - - - - 16.0 1006.5 0.0
08/11:00am SSW 15 23 - - - - - - - 15.5 1006.2 0.0
08/10:30am SSW 13 18 - - - - - - - 15.1 1006.1 0.0
08/10:00am SSW 17 22 - - - - - - - 14.4 1006.0 0.0
08/09:30am SSW 15 22 - - - - - - - 14.0 1005.7 0.0
08/09:00am SW 18 25 - - - - - - - 13.4 1005.3 0.0
08/08:30am SSW 16 22 - - - - - - - 13.1 1004.9 0.0
08/08:00am SW 14 19 - - - - - - - 12.0 1004.4 0.0
08/07:30am SW 15 19 - - - - - - - 11.4 1003.9 0.0
08/07:00am WSW 18 21 - - - - - - - 11.7 1003.1 0.0
08/06:30am WSW 18 21 - - - - - - - 11.4 1002.5 0.0
08/06:00am WSW 20 24 - - - - - - - 11.5 1002.2 0.0
08/05:30am WSW 19 22 - - - - - - - 11.6 1001.7 0.0
08/05:00am WSW 19 22 - - - - - - - 11.6 1001.3 0.0
08/04:30am WSW 20 25 - - - - - - - 11.7 1001.1 0.0
08/04:00am WSW 23 26 - - - - - - - 11.6 1000.7 0.0
08/03:30am WSW 24 28 - - - - - - - 11.6 1000.3 0.0
08/03:00am WSW 23 27 - - - - - - - 11.8 1000.1 0.0
08/02:30am WSW 24 29 - - - - - - - 12.0 999.8 0.0
08/02:00am WSW 19 23 - - - - - - - 11.9 999.9 0.0
08/01:30am WSW 23 26 - - - - - - - 12.1 999.6 0.0
08/01:00am WSW 29 35 - - - - - - - 12.2 999.1 0.0
08/12:30am WSW 29 35 - - - - - - - 12.3 998.7 0.0
08/12:00am WSW 26 32 - - - - - - - 12.5 999.1 0.0
 
Date/Time
EDT
Wind Sea
Height
m
Swell Vis
km
Cloud Weather Temp
°C
Press
MSL
hPa
Rain since
9am
mm
Dir  Spd
kts
Gust
kts
Height
m
Period
s
Dir
07/11:30pm W 28 33 - - - - - - - 12.6 998.8 0.0
07/11:00pm W 26 31 - - - - - - - 13.1 998.9 0.0
07/10:30pm WSW 20 23 - - - - - - - 13.4 998.7 0.0
07/10:00pm W 20 24 - - - - - - - 13.7 998.7 0.0
07/09:30pm W 22 25 - - - - - - - 13.8 998.5 0.0
07/09:00pm W 21 24 - - - - - - - 14.0 998.1 0.0

Other formats

Comma delimited format used in spreadsheet applications
http://www.bom.gov.au/fwo/IDV60701/IDV60701.95964.axf

JavaScript Object Notation format (JSON) in row-major order
http://www.bom.gov.au/fwo/IDV60701/IDV60701.95964.json

Data quality

Most of these data are generated automatically and are frequently updated. Quality checks on data are not normally performed. It is possible for incorrect values to appear. Refer to information at About Latest Weather Observations and please check the disclaimer before using these data.